Time;durP1;ratioP1;P1;durP2;ratioP2;P2;SDS_P1;SDS_P2;PMS_P1;PMS_P2;Temp;Humidity;BMP_temperature;BMP_pressure;BME280_temperature;BME280_humidity;BME280_pressure;Samples;Min_cycle;Max_cycle;Signal;HPM_P1;HPM_P2
2021/09/21 00:02:01;;;;;;;4.12;1.98;;;;;;;18.41;51.13;101583.88;1771488;80;21005;-50
2021/09/21 00:04:28;;;;;;;2.95;2.02;;;;;;;18.46;51.31;101585.91;1785173;80;20976;-50
2021/09/21 00:06:56;;;;;;;3.00;2.17;;;;;;;18.51;51.24;101593.14;1773897;80;21077;-53
2021/09/21 00:09:24;;;;;;;2.75;1.80;;;;;;;18.45;51.60;101610.08;1772835;80;21001;-50
2021/09/21 00:11:51;;;;;;;4.92;1.70;;;;;;;18.37;51.53;101601.59;1772211;80;21483;-47
2021/09/21 00:14:19;;;;;;;2.70;1.80;;;;;;;18.25;52.29;101603.86;1771207;80;21041;-47
2021/09/21 00:16:47;;;;;;;4.00;2.15;;;;;;;18.13;52.29;101597.31;1778744;80;21060;-50
2021/09/21 00:19:15;;;;;;;1.72;1.62;;;;;;;18.07;52.58;101599.32;1768862;80;21018;-51
2021/09/21 00:21:43;;;;;;;2.90;1.85;;;;;;;18.01;52.79;101602.20;1774157;80;21030;-47
2021/09/21 00:24:11;;;;;;;1.80;1.70;;;;;;;17.95;52.56;101609.02;1772038;80;21005;-52
2021/09/21 00:26:38;;;;;;;1.70;1.60;;;;;;;17.93;52.62;101616.13;1769259;80;21022;-47
2021/09/21 00:29:08;;;;;;;4.40;1.90;;;;;;;17.91;52.27;101607.42;1768700;80;20983;-51
2021/09/21 00:31:38;;;;;;;1.47;1.37;;;;;;;17.87;51.92;101611.47;1768741;80;21017;-46
2021/09/21 00:34:08;;;;;;;4.12;1.90;;;;;;;17.85;51.52;101606.73;1766323;80;20974;-50
2021/09/21 00:36:36;;;;;;;1.87;1.70;;;;;;;17.83;52.38;101617.77;1765876;80;20981;-47
2021/09/21 00:39:05;;;;;;;2.10;1.67;;;;;;;17.82;52.54;101613.44;1766562;80;21026;-48
2021/09/21 00:41:35;;;;;;;3.60;1.87;;;;;;;17.82;52.74;101618.70;1775982;80;20999;-49
2021/09/21 00:44:03;;;;;;;1.75;1.50;;;;;;;17.80;51.76;101620.51;1767474;80;21037;-49
2021/09/21 00:46:29;;;;;;;3.45;1.90;;;;;;;17.81;51.57;101619.61;1777087;80;21488;-50
2021/09/21 00:48:56;;;;;;;2.33;2.12;;;;;;;17.80;51.49;101616.56;1765278;80;21024;-51
2021/09/21 00:51:24;;;;;;;2.92;2.10;;;;;;;17.77;51.80;101620.64;1764731;80;21461;-51
2021/09/21 00:53:52;;;;;;;3.92;2.05;;;;;;;17.74;52.22;101619.42;1768197;80;20993;-51
2021/09/21 00:56:20;;;;;;;5.42;3.60;;;;;;;17.72;53.32;101621.73;1769288;80;21529;-52
2021/09/21 00:58:49;;;;;;;4.42;3.20;;;;;;;17.70;54.41;101633.62;1714136;83;21038;-51
2021/09/21 01:01:18;;;;;;;4.40;2.92;;;;;;;17.65;55.54;101634.27;1712199;83;21047;-48
2021/09/21 01:03:46;;;;;;;3.15;2.60;;;;;;;17.61;55.40;101633.98;1700877;83;21503;-49
2021/09/21 01:06:15;;;;;;;6.60;2.80;;;;;;;17.57;55.29;101643.35;1702841;83;21506;-47
2021/09/21 01:08:42;;;;;;;5.22;2.83;;;;;;;17.50;55.40;101653.23;1714216;84;21018;-51
2021/09/21 01:11:13;;;;;;;4.40;2.58;;;;;;;17.45;55.46;101661.73;1730134;82;21074;-48
2021/09/21 01:13:42;;;;;;;4.25;2.70;;;;;;;17.39;55.24;101668.53;1701609;84;21051;-53
2021/09/21 01:16:09;;;;;;;4.97;2.60;;;;;;;17.37;55.57;101666.86;1714402;84;21034;-51
2021/09/21 01:18:37;;;;;;;3.37;2.67;;;;;;;17.31;55.89;101665.28;1698894;83;21030;-49
2021/09/21 01:21:09;;;;;;;2.20;2.00;;;;;;;17.30;55.76;101668.84;1743352;81;21404;-47
2021/09/21 01:23:51;;;;;;;2.45;1.52;;;;;;;17.25;55.58;101668.13;1753092;81;21069;-50
2021/09/21 01:26:20;;;;;;;2.95;1.20;;;;;;;17.21;54.97;101674.41;1752830;81;21023;-50
2021/09/21 01:28:49;;;;;;;1.47;1.27;;;;;;;17.16;54.91;101668.91;1747062;81;21573;-52
2021/09/21 01:31:16;;;;;;;1.20;1.10;;;;;;;17.10;54.81;101673.45;1718121;83;21053;-47
2021/09/21 01:33:47;;;;;;;1.50;1.10;;;;;;;17.08;54.29;101682.33;1743059;81;21091;-47
2021/09/21 01:36:15;;;;;;;1.10;0.90;;;;;;;17.01;54.43;101678.18;1743809;81;21022;-50
2021/09/21 01:38:44;;;;;;;1.72;0.85;;;;;;;16.95;53.75;101684.95;1752992;81;21042;-50
2021/09/21 01:41:11;;;;;;;1.05;0.95;;;;;;;16.90;54.33;101686.86;1744841;81;21069;-50
2021/09/21 01:43:42;;;;;;;0.80;0.80;;;;;;;16.84;53.96;101689.70;1743927;81;21010;-47
2021/09/21 01:46:14;;;;;;;1.37;0.70;;;;;;;16.77;54.16;101690.83;1743583;81;20997;-51
2021/09/21 01:48:43;;;;;;;1.32;0.78;;;;;;;16.71;54.21;101693.17;1743079;80;21000;-51
2021/09/21 01:51:19;;;;;;;1.82;0.72;;;;;;;16.65;54.41;101689.91;1707261;83;21009;-47
2021/09/21 01:54:00;;;;;;;2.75;1.02;;;;;;;16.57;54.68;101687.98;1693242;84;21037;-47
2021/09/21 01:59:03;;;;;;;1.40;1.30;;;;;;;16.49;55.34;101692.14;1746311;81;21012;-49
2021/09/21 02:01:31;;;;;;;1.67;1.30;;;;;;;16.43;55.43;101687.49;1746246;81;20996;-52
2021/09/21 02:03:59;;;;;;;1.37;1.27;;;;;;;16.41;55.83;101690.63;1745901;81;21036;-50
2021/09/21 02:09:09;;;;;;;1.22;1.10;;;;;;;16.41;55.99;101682.73;1704320;84;21010;-47
2021/09/21 02:11:37;;;;;;;0.65;0.62;;;;;;;16.40;55.83;101682.35;1713146;84;21034;-48
2021/09/21 02:14:08;;;;;;;1.82;0.80;;;;;;;16.36;55.65;101680.73;1700548;84;21007;-50
2021/09/21 02:16:35;;;;;;;2.92;1.02;;;;;;;16.32;55.91;101681.73;1712882;84;21561;-49
2021/09/21 02:19:02;;;;;;;1.30;0.80;;;;;;;16.25;56.08;101676.66;1729994;82;21069;-49
2021/09/21 02:21:30;;;;;;;2.92;1.02;;;;;;;16.22;56.32;101682.44;1738315;82;21026;-47
2021/09/21 02:23:59;;;;;;;0.82;0.80;;;;;;;16.22;56.61;101682.00;1738042;82;21050;-50
2021/09/21 02:26:27;;;;;;;2.10;0.98;;;;;;;16.22;56.76;101671.48;1738022;82;21006;-51
2021/09/21 02:28:54;;;;;;;1.75;1.35;;;;;;;16.24;56.41;101680.19;1743811;82;21165;-50
2021/09/21 02:31:22;;;;;;;1.17;1.07;;;;;;;16.26;55.99;101674.43;1739091;82;21062;-51
2021/09/21 02:33:50;;;;;;;1.37;1.00;;;;;;;16.28;55.97;101673.92;1739221;82;21117;-47
2021/09/21 02:36:18;;;;;;;1.50;0.95;;;;;;;16.29;55.71;101674.34;1739540;82;21031;-50
2021/09/21 02:38:45;;;;;;;0.78;0.78;;;;;;;16.30;55.53;101683.93;1739428;82;21015;-51
2021/09/21 02:41:12;;;;;;;1.82;1.10;;;;;;;16.30;54.99;101685.25;1739106;82;20990;-50
2021/09/21 02:43:39;;;;;;;1.37;1.00;;;;;;;16.30;55.13;101682.62;1738329;82;21057;-52
2021/09/21 02:46:06;;;;;;;1.55;1.10;;;;;;;16.31;54.69;101683.48;1735756;82;21484;-49
2021/09/21 02:48:33;;;;;;;1.00;0.90;;;;;;;16.30;54.75;101697.06;1739778;82;21030;-50
2021/09/21 02:51:00;;;;;;;1.10;1.00;;;;;;;16.33;54.78;101696.56;1739313;82;21483;-48
2021/09/21 02:53:26;;;;;;;1.02;0.85;;;;;;;16.36;55.06;101706.55;1738499;82;21021;-50
2021/09/21 02:55:53;;;;;;;1.90;1.30;;;;;;;16.38;54.47;101707.36;1739457;82;21057;-50
2021/09/21 02:58:19;;;;;;;1.50;1.37;;;;;;;16.40;54.41;101701.61;1735586;82;21104;-48
2021/09/21 03:00:51;;;;;;;1.40;1.30;;;;;;;16.39;54.06;101699.00;1738250;82;21034;-51
2021/09/21 03:03:17;;;;;;;1.60;1.40;;;;;;;16.38;54.03;101703.86;1735213;82;20986;-50
2021/09/21 03:05:52;;;;;;;1.50;1.30;;;;;;;16.38;53.73;101706.49;1784362;80;21029;-50
2021/09/21 03:08:18;;;;;;;1.22;1.12;;;;;;;16.37;54.22;101703.44;1771799;80;21032;-47
2021/09/21 03:13:53;;;;;;;1.40;1.25;;;;;;;16.51;55.63;101710.48;1786718;79;21491;-50
2021/09/21 03:18:56;;;;;;;1.50;1.40;;;;;;;16.74;55.41;101716.74;1770510;80;21053;-51
2021/09/21 03:21:24;;;;;;;1.85;1.52;;;;;;;16.80;55.14;101715.23;1766826;80;20986;-47
2021/09/21 03:23:52;;;;;;;1.92;1.40;;;;;;;16.87;55.27;101719.84;1768668;80;21038;-48
2021/09/21 03:26:20;;;;;;;1.60;1.50;;;;;;;16.94;55.09;101724.84;1773673;80;21057;-50
2021/09/21 03:28:47;;;;;;;2.02;1.55;;;;;;;16.98;54.96;101721.68;1769726;80;21033;-49
2021/09/21 03:31:14;;;;;;;1.47;1.37;;;;;;;17.05;55.28;101729.75;1765648;80;21028;-50
2021/09/21 03:33:40;;;;;;;1.82;1.72;;;;;;;17.14;55.13;101729.91;1766775;80;21089;-52
2021/09/21 03:36:06;;;;;;;2.08;1.87;;;;;;;17.20;54.90;101730.57;1769095;80;20982;-47
2021/09/21 03:38:33;;;;;;;2.10;1.80;;;;;;;17.24;54.86;101733.50;1768553;80;20978;-49
2021/09/21 03:41:02;;;;;;;2.20;2.00;;;;;;;17.29;54.63;101737.30;1768981;80;21033;-48
2021/09/21 03:43:28;;;;;;;2.33;1.60;;;;;;;17.29;53.89;101731.55;1768702;80;20998;-47
2021/09/21 03:45:56;;;;;;;8.30;2.08;;;;;;;17.23;52.96;101733.56;1767946;80;21373;-50
2021/09/21 03:48:22;;;;;;;1.72;1.62;;;;;;;17.12;53.24;101732.59;1766592;80;21037;-50
2021/09/21 03:50:49;;;;;;;1.60;1.30;;;;;;;17.06;52.92;101727.55;1768490;80;20975;-47
2021/09/21 03:53:16;;;;;;;1.92;1.72;;;;;;;16.97;51.93;101730.02;1780630;80;20994;-47
2021/09/21 03:55:44;;;;;;;2.17;1.60;;;;;;;16.86;52.28;101732.56;1778492;80;21014;-47
2021/09/21 03:58:11;;;;;;;1.65;1.32;;;;;;;16.77;52.19;101741.63;1766978;80;20951;-50
2021/09/21 04:00:38;;;;;;;1.30;1.20;;;;;;;16.69;51.47;101738.83;1765750;80;21518;-48
2021/09/21 04:03:05;;;;;;;1.60;1.50;;;;;;;16.59;51.12;101744.81;1766477;80;21033;-50
2021/09/21 04:05:34;;;;;;;1.75;1.65;;;;;;;16.52;51.57;101742.42;1775586;80;21620;-47
2021/09/21 04:08:00;;;;;;;1.50;1.40;;;;;;;16.48;51.85;101738.14;1766900;80;21058;-50
2021/09/21 04:10:28;;;;;;;2.00;1.80;;;;;;;16.42;51.62;101739.20;1766678;80;21528;-47
2021/09/21 04:12:56;;;;;;;1.40;1.30;;;;;;;16.36;51.72;101738.52;1765483;80;21049;-49
2021/09/21 04:15:23;;;;;;;2.52;1.42;;;;;;;16.29;51.18;101737.38;1765751;80;21005;-47
2021/09/21 04:17:52;;;;;;;1.40;1.30;;;;;;;16.25;51.76;101737.06;1762345;80;21514;-51
2021/09/21 04:20:18;;;;;;;1.40;1.30;;;;;;;16.21;51.74;101736.75;1769253;80;21005;-47
2021/09/21 04:22:45;;;;;;;1.72;1.62;;;;;;;16.20;52.25;101740.71;1768758;80;20986;-49
2021/09/21 04:25:14;;;;;;;1.50;1.40;;;;;;;16.19;52.44;101742.95;1769095;80;21006;-50
2021/09/21 04:27:41;;;;;;;1.67;1.20;;;;;;;16.17;52.21;101746.94;1768707;80;21501;-49
2021/09/21 04:30:17;;;;;;;1.60;1.47;;;;;;;16.17;51.98;101746.07;1766538;80;21003;-51
2021/09/21 04:32:41;;;;;;;;;;;;;;;16.18;52.03;101749.95;1765605;80;21017;-49
2021/09/21 04:35:09;;;;;;;3.10;1.17;;;;;;;16.17;52.17;101756.13;1766055;80;20408;-51
2021/09/21 04:37:37;;;;;;;1.22;1.05;;;;;;;16.16;52.08;101751.77;1775984;80;21069;-51
2021/09/21 04:40:06;;;;;;;1.50;1.40;;;;;;;16.16;51.97;101755.70;1766990;80;21022;-50
2021/09/21 04:42:34;;;;;;;1.35;1.25;;;;;;;16.18;51.84;101755.66;1766914;80;21018;-49
2021/09/21 04:45:03;;;;;;;2.15;1.40;;;;;;;16.16;51.47;101755.70;1765331;80;21009;-51
2021/09/21 04:47:30;;;;;;;2.05;1.32;;;;;;;16.15;51.71;101753.13;1765760;80;20998;-47
2021/09/21 04:49:57;;;;;;;1.25;1.20;;;;;;;16.14;51.61;101760.14;1767167;80;21005;-50
2021/09/21 04:52:24;;;;;;;1.35;1.25;;;;;;;16.16;51.68;101766.66;1782642;80;21490;-52
2021/09/21 04:54:51;;;;;;;1.40;1.30;;;;;;;16.16;51.54;101764.89;1765490;80;20985;-51
2021/09/21 04:57:17;;;;;;;1.77;1.20;;;;;;;16.14;51.21;101772.41;1766504;80;21021;-48
2021/09/21 04:59:45;;;;;;;2.00;1.50;;;;;;;16.11;50.75;101770.75;1772646;80;21451;-48
2021/09/21 05:02:12;;;;;;;1.60;1.50;;;;;;;16.11;51.54;101772.51;1766694;80;20974;-51
2021/09/21 05:04:39;;;;;;;1.52;1.42;;;;;;;16.11;51.61;101777.31;1704683;84;21002;-48
2021/09/21 05:07:06;;;;;;;2.92;1.60;;;;;;;16.08;51.13;101781.33;1705413;83;21502;-51
2021/09/21 05:09:33;;;;;;;2.30;1.67;;;;;;;16.06;51.10;101780.50;1714216;83;21033;-51
2021/09/21 05:12:02;;;;;;;1.47;1.37;;;;;;;16.05;50.72;101781.39;1707042;83;21036;-52
2021/09/21 05:14:29;;;;;;;2.92;1.90;;;;;;;16.02;51.25;101789.37;1705261;83;21514;-52
2021/09/21 05:16:58;;;;;;;1.95;1.77;;;;;;;15.98;51.35;101785.11;1709309;83;21119;-49
2021/09/21 05:19:27;;;;;;;1.72;1.62;;;;;;;15.95;51.53;101781.24;1693582;83;21070;-48
2021/09/21 05:21:55;;;;;;;1.87;1.77;;;;;;;15.92;51.26;101790.53;1707180;83;21624;-47
2021/09/21 05:24:23;;;;;;;1.75;1.40;;;;;;;15.87;51.25;101796.78;1692543;83;21042;-48
2021/09/21 05:26:51;;;;;;;3.08;1.65;;;;;;;15.86;51.87;101804.27;1704530;83;21030;-51
2021/09/21 05:29:18;;;;;;;2.00;1.90;;;;;;;15.84;51.72;101810.88;1701984;83;21034;-53
2021/09/21 05:31:45;;;;;;;1.85;1.70;;;;;;;15.84;51.39;101807.38;1701770;83;21049;-50
2021/09/21 05:34:12;;;;;;;1.52;1.42;;;;;;;15.84;51.11;101813.95;1755799;82;21011;-49
2021/09/21 05:36:39;;;;;;;2.98;1.60;;;;;;;15.85;51.24;101811.27;1755552;81;21073;-50
2021/09/21 05:39:05;;;;;;;1.52;1.30;;;;;;;15.89;51.32;101814.22;1755396;81;20998;-52
2021/09/21 05:41:32;;;;;;;1.67;1.45;;;;;;;15.90;51.37;101815.96;1755627;81;21045;-50
2021/09/21 05:44:01;;;;;;;2.22;1.20;;;;;;;15.94;51.71;101821.98;1754678;81;20994;-50
2021/09/21 05:46:28;;;;;;;1.50;1.40;;;;;;;15.97;51.82;101818.81;1755502;81;21010;-51
2021/09/21 05:48:59;;;;;;;1.75;1.37;;;;;;;16.02;52.32;101818.69;1755288;81;21061;-50
2021/09/21 05:51:23;;;;;;;1.20;1.10;;;;;;;16.07;51.24;101821.59;1751321;81;21108;-48
2021/09/21 05:53:51;;;;;;;3.15;1.32;;;;;;;16.07;50.77;101818.97;1755252;81;21578;-49
2021/09/21 05:56:19;;;;;;;2.52;1.57;;;;;;;16.05;50.99;101833.91;1741849;81;21041;-51
2021/09/21 05:58:46;;;;;;;1.32;1.22;;;;;;;16.08;51.44;101836.91;1755346;81;21033;-52
2021/09/21 06:01:13;;;;;;;2.35;1.30;;;;;;;16.06;51.18;101831.70;1755437;81;21025;-49
2021/09/21 06:03:40;;;;;;;1.27;1.17;;;;;;;16.05;51.03;101826.03;1743249;81;21054;-51
2021/09/21 06:06:11;;;;;;;1.30;1.20;;;;;;;16.03;50.57;101827.83;1752913;81;21049;-49
2021/09/21 06:08:38;;;;;;;1.70;1.00;;;;;;;16.03;51.36;101833.08;1750840;81;20998;-51
2021/09/21 06:11:04;;;;;;;1.32;1.10;;;;;;;16.03;50.46;101829.14;1747477;81;21493;-53
2021/09/21 06:13:33;;;;;;;2.77;0.95;;;;;;;16.05;50.68;101835.69;1754411;81;21002;-51
2021/09/21 06:16:00;;;;;;;1.05;0.93;;;;;;;16.05;49.45;101831.75;1753003;81;21013;-51
2021/09/21 06:18:27;;;;;;;1.00;0.90;;;;;;;16.06;50.11;101835.64;1747688;81;21550;-53
2021/09/21 06:20:55;;;;;;;1.10;1.10;;;;;;;16.07;49.68;101824.22;1772353;80;20976;-48
2021/09/21 06:23:23;;;;;;;0.78;0.78;;;;;;;16.08;48.79;101828.58;1768865;80;21018;-50
2021/09/21 06:25:49;;;;;;;1.85;1.20;;;;;;;16.09;49.41;101830.28;1773656;80;21080;-51
2021/09/21 06:28:16;;;;;;;1.30;1.17;;;;;;;16.12;49.37;101830.22;1773640;80;21068;-50
2021/09/21 06:30:43;;;;;;;1.40;1.22;;;;;;;16.17;49.86;101830.97;1765702;80;20983;-50
2021/09/21 06:33:10;;;;;;;1.10;1.00;;;;;;;16.21;49.74;101829.11;1770414;80;21011;-48
2021/09/21 06:35:37;;;;;;;1.27;1.10;;;;;;;16.24;49.76;101833.81;1771081;80;21037;-50
2021/09/21 06:38:04;;;;;;;1.00;0.75;;;;;;;16.27;49.58;101833.75;1777350;80;20995;-50
2021/09/21 06:40:31;;;;;;;0.70;0.60;;;;;;;16.28;48.56;101835.45;1777672;80;21006;-52
2021/09/21 06:42:57;;;;;;;2.27;0.80;;;;;;;16.28;48.51;101825.39;1764677;80;20992;-51
2021/09/21 06:45:24;;;;;;;7.58;4.80;;;;;;;16.27;48.29;101823.23;1770369;80;20990;-51
2021/09/21 06:47:51;;;;;;;4.00;1.20;;;;;;;16.26;47.84;101835.08;1771609;80;20975;-50
2021/09/21 06:50:18;;;;;;;1.22;0.98;;;;;;;16.28;47.63;101841.15;1772857;80;20981;-51
2021/09/21 06:52:44;;;;;;;6.97;2.77;;;;;;;16.29;48.67;101854.27;1767995;80;21522;-46
2021/09/21 06:55:13;;;;;;;1.00;0.90;;;;;;;16.32;48.67;101842.81;1771578;80;21009;-50
2021/09/21 06:57:41;;;;;;;4.10;1.15;;;;;;;16.35;48.42;101845.78;1767835;80;21021;-51
2021/09/21 07:00:10;;;;;;;1.20;1.00;;;;;;;16.37;48.13;101854.48;1775199;80;20987;-52
2021/09/21 07:02:39;;;;;;;1.25;1.15;;;;;;;16.39;48.12;101859.23;1777395;80;20966;-49
2021/09/21 07:05:08;;;;;;;3.72;1.10;;;;;;;16.42;47.82;101865.29;1774749;80;21484;-51
2021/09/21 07:07:37;;;;;;;1.02;1.00;;;;;;;16.46;47.99;101862.11;1766394;80;21017;-48
2021/09/21 07:10:04;;;;;;;1.67;0.90;;;;;;;16.51;47.44;101862.41;1769061;80;20998;-50
2021/09/21 07:12:31;;;;;;;0.90;0.90;;;;;;;16.52;47.43;101868.54;1769947;80;21400;-50
2021/09/21 07:14:59;;;;;;;0.93;0.93;;;;;;;16.53;47.70;101883.38;1764786;80;21050;-50
2021/09/21 07:17:28;;;;;;;0.98;0.90;;;;;;;16.54;47.83;101877.23;1780940;80;21057;-50
2021/09/21 07:19:54;;;;;;;2.20;1.50;;;;;;;16.54;48.15;101879.87;1778096;80;21049;-50
2021/09/21 07:22:21;;;;;;;1.25;0.95;;;;;;;16.53;47.73;101878.13;1764854;80;21001;-50
2021/09/21 07:24:50;;;;;;;1.92;1.00;;;;;;;16.52;47.20;101879.05;1771619;80;21008;-50
2021/09/21 07:27:17;;;;;;;0.82;0.82;;;;;;;16.53;46.71;101888.63;1778979;80;20962;-50
2021/09/21 07:29:43;;;;;;;1.25;0.80;;;;;;;16.49;46.37;101879.98;1774151;80;21714;-51
2021/09/21 07:32:10;;;;;;;1.22;0.90;;;;;;;16.47;46.99;101879.58;1770656;80;20938;-50
2021/09/21 07:34:37;;;;;;;3.33;0.93;;;;;;;16.49;47.35;101881.71;1766754;80;20970;-48
2021/09/21 07:37:03;;;;;;;1.30;1.10;;;;;;;16.52;47.30;101889.11;1764339;80;21022;-50
2021/09/21 07:39:30;;;;;;;2.12;0.90;;;;;;;16.54;47.15;101879.87;1762412;80;21003;-50
2021/09/21 07:41:57;;;;;;;1.00;0.90;;;;;;;16.56;47.14;101884.63;1758842;80;21518;-50
2021/09/21 07:44:25;;;;;;;1.20;1.10;;;;;;;16.57;46.62;101895.56;1769687;80;21041;-50
2021/09/21 07:46:53;;;;;;;1.17;1.00;;;;;;;16.57;46.53;101892.94;1768672;80;21021;-51
2021/09/21 07:49:20;;;;;;;1.15;1.05;;;;;;;16.61;46.30;101894.56;1769121;80;20982;-50
2021/09/21 07:51:49;;;;;;;0.95;0.90;;;;;;;16.66;46.65;101892.65;1768911;80;21057;-51
2021/09/21 07:54:15;;;;;;;1.20;1.10;;;;;;;16.73;46.74;101891.58;1766537;80;21513;-50
2021/09/21 07:56:44;;;;;;;1.20;1.10;;;;;;;16.80;46.43;101900.99;1765202;80;21001;-50
2021/09/21 07:59:10;;;;;;;1.45;1.25;;;;;;;16.88;46.18;101898.55;1766927;80;21553;-50
2021/09/21 08:01:37;;;;;;;4.37;1.45;;;;;;;16.97;46.29;101888.22;1768510;80;21007;-50
2021/09/21 08:04:04;;;;;;;1.20;1.10;;;;;;;17.03;46.25;101885.41;1773746;80;20986;-51
2021/09/21 08:06:31;;;;;;;2.05;1.20;;;;;;;17.03;45.81;101888.91;1766277;80;20986;-50
2021/09/21 08:08:58;;;;;;;1.15;0.90;;;;;;;17.04;46.08;101880.56;1765700;80;21464;-50
2021/09/21 08:11:27;;;;;;;2.05;0.90;;;;;;;17.04;45.73;101884.52;1767372;80;21491;-47
2021/09/21 08:13:54;;;;;;;1.27;1.17;;;;;;;17.01;45.53;101881.95;1783636;80;21462;-51
2021/09/21 08:16:23;;;;;;;1.92;1.00;;;;;;;16.99;45.91;101873.25;1765847;80;20986;-52
2021/09/21 08:18:50;;;;;;;1.10;0.98;;;;;;;16.96;45.76;101875.52;1765585;80;21053;-50
2021/09/21 08:21:19;;;;;;;1.37;1.27;;;;;;;16.96;46.23;101881.25;1787188;80;21146;-50
2021/09/21 08:23:46;;;;;;;2.47;1.20;;;;;;;16.95;45.89;101879.07;1773590;80;21517;-47
2021/09/21 08:26:14;;;;;;;1.15;0.93;;;;;;;16.96;45.97;101873.37;1771230;80;21037;-49
2021/09/21 08:28:41;;;;;;;1.00;0.98;;;;;;;16.98;45.56;101879.44;1771503;80;21041;-50
2021/09/21 08:31:08;;;;;;;3.25;1.00;;;;;;;16.98;45.37;101870.23;1767721;80;20982;-50
2021/09/21 08:33:37;;;;;;;10.98;1.72;;;;;;;16.98;45.62;101861.88;1774120;80;21517;-50
2021/09/21 08:36:04;;;;;;;0.80;0.80;;;;;;;16.99;46.43;101871.50;1774565;80;21076;-47
2021/09/21 08:38:31;;;;;;;1.12;1.02;;;;;;;17.03;46.52;101869.62;1774739;80;21475;-51
2021/09/21 08:40:59;;;;;;;2.17;1.15;;;;;;;17.04;45.84;101877.94;1774072;80;21053;-50
2021/09/21 08:43:26;;;;;;;1.07;1.02;;;;;;;17.04;45.43;101873.99;1771471;80;21005;-50
2021/09/21 08:45:52;;;;;;;0.90;0.90;;;;;;;17.02;45.50;101875.33;1771141;80;21006;-49
2021/09/21 08:48:20;;;;;;;2.12;1.42;;;;;;;17.02;45.72;101871.38;1772812;80;21496;-51
2021/09/21 08:50:47;;;;;;;2.17;1.20;;;;;;;17.04;45.70;101868.73;1777305;80;21017;-48
2021/09/21 08:53:14;;;;;;;2.27;0.95;;;;;;;17.04;45.27;101859.53;1782893;80;21025;-51
2021/09/21 08:55:43;;;;;;;2.45;0.98;;;;;;;17.05;45.21;101858.61;1771345;80;21071;-48
2021/09/21 08:58:10;;;;;;;3.45;1.10;;;;;;;17.07;44.93;101851.53;1769509;80;20956;-51
2021/09/21 09:00:37;;;;;;;1.17;1.05;;;;;;;17.08;44.98;101854.58;1776518;80;20954;-52
2021/09/21 09:03:12;;;;;;;1.50;1.02;;;;;;;17.12;44.35;101866.72;1772144;80;21053;-49
2021/09/21 09:05:47;;;;;;;2.83;1.12;;;;;;;17.13;44.85;101875.00;1776956;80;21054;-51
2021/09/21 09:08:14;;;;;;;1.20;0.90;;;;;;;17.16;44.22;101876.23;1775961;80;21545;-51
2021/09/21 09:10:41;;;;;;;1.10;1.00;;;;;;;17.19;43.86;101872.18;1775580;80;20992;-51
2021/09/21 09:13:18;;;;;;;1.40;1.02;;;;;;;17.20;43.87;101868.66;1775658;80;21003;-50
2021/09/21 09:15:53;;;;;;;1.95;1.00;;;;;;;17.24;43.90;101870.28;1778775;80;20985;-51
2021/09/21 09:18:26;;;;;;;0.98;0.88;;;;;;;17.25;43.23;101868.04;1775923;80;20934;-50
2021/09/21 09:20:53;;;;;;;4.45;0.85;;;;;;;17.28;43.81;101867.95;1784533;80;21085;-49
2021/09/21 09:23:21;;;;;;;1.60;0.98;;;;;;;17.28;43.57;101873.22;1784447;80;20990;-50
2021/09/21 09:25:48;;;;;;;1.30;1.10;;;;;;;17.31;43.55;101867.84;1777173;80;21005;-49
2021/09/21 09:28:21;;;;;;;1.35;1.00;;;;;;;17.34;43.04;101870.39;1775315;80;22525;-49
2021/09/21 09:30:48;;;;;;;0.90;0.90;;;;;;;17.38;43.01;101868.52;1775713;80;20961;-48
2021/09/21 09:33:15;;;;;;;1.25;0.90;;;;;;;17.41;43.07;101874.56;1768011;80;20978;-46
2021/09/21 09:35:46;;;;;;;2.77;1.15;;;;;;;17.43;42.68;101876.69;1764062;80;21521;-46
2021/09/21 09:38:19;;;;;;;1.17;1.07;;;;;;;17.44;42.90;101878.39;1772816;80;20977;-49
2021/09/21 09:40:56;;;;;;;1.15;1.05;;;;;;;17.45;43.25;101881.45;1785242;80;21017;-49
2021/09/21 09:43:27;;;;;;;0.88;0.72;;;;;;;17.46;43.14;101883.15;1781807;80;21045;-47
2021/09/21 09:45:56;;;;;;;0.80;0.80;;;;;;;17.48;42.70;101887.91;1785206;80;21040;-50
2021/09/21 09:48:24;;;;;;;1.12;0.85;;;;;;;17.51;42.37;101881.28;1775358;80;20982;-49
2021/09/21 09:50:54;;;;;;;0.72;0.62;;;;;;;17.57;41.89;101885.02;1769204;80;20999;-50
2021/09/21 09:53:24;;;;;;;2.55;0.93;;;;;;;17.62;41.60;101881.77;1773494;80;20992;-50
2021/09/21 09:55:54;;;;;;;;;;;;;;;17.66;41.73;101882.07;1730396;82;21514;-48
2021/09/21 09:58:21;;;;;;;2.30;1.32;;;;;;;17.70;42.33;101877.59;1722162;82;20101;-52
2021/09/21 10:00:49;;;;;;;2.17;1.00;;;;;;;17.71;42.87;101886.73;1722851;82;21058;-49
2021/09/21 10:03:16;;;;;;;1.05;0.80;;;;;;;17.74;43.13;101890.57;1716792;82;21458;-47
2021/09/21 10:05:43;;;;;;;1.20;0.93;;;;;;;17.73;42.72;101891.50;1721166;82;21063;-50
2021/09/21 10:08:11;;;;;;;1.52;0.98;;;;;;;17.71;43.17;101886.73;1722130;82;20990;-46
2021/09/21 10:10:40;;;;;;;0.88;0.88;;;;;;;17.74;42.95;101885.30;1723935;82;21099;-49
2021/09/21 10:13:10;;;;;;;1.12;0.90;;;;;;;17.75;43.00;101888.36;1722169;82;21479;-49
2021/09/21 10:15:40;;;;;;;0.80;0.78;;;;;;;17.74;42.76;101886.63;1724706;82;21010;-49
2021/09/21 10:18:17;;;;;;;2.22;1.42;;;;;;;17.72;43.34;101891.08;1682120;84;21488;-50
2021/09/21 10:21:03;;;;;;;2.92;1.05;;;;;;;17.70;42.88;101890.27;1603432;87;21089;-49
2021/09/21 10:23:33;;;;;;;2.10;1.02;;;;;;;17.69;43.03;101889.88;1632259;86;21045;-50
2021/09/21 10:26:18;;;;;;;2.17;0.88;;;;;;;17.71;42.73;101886.73;1539761;92;21054;-49
2021/09/21 10:28:48;;;;;;;1.40;1.00;;;;;;;17.73;42.13;101884.92;1472442;96;21127;-49
2021/09/21 10:31:17;;;;;;;2.52;0.88;;;;;;;17.80;42.00;101887.73;1485322;96;21124;-49
2021/09/21 10:33:44;;;;;;;1.00;0.85;;;;;;;17.88;41.51;101888.36;1473242;96;21014;-51
2021/09/21 10:36:31;;;;;;;1.87;1.27;;;;;;;17.96;41.78;101891.17;1474101;96;21630;-50
2021/09/21 10:39:10;;;;;;;1.05;0.95;;;;;;;18.04;42.12;101897.91;1475351;96;21017;-50
2021/09/21 10:41:58;;;;;;;1.50;1.10;;;;;;;18.11;40.70;101899.42;1474124;96;21110;-51
2021/09/21 10:44:25;;;;;;;1.15;1.05;;;;;;;18.13;40.89;101898.05;1477760;96;21107;-54
2021/09/21 10:46:58;;;;;;;1.92;0.88;;;;;;;18.13;41.18;101904.63;1479870;95;21175;-49
2021/09/21 10:49:40;;;;;;;0.90;0.90;;;;;;;18.13;41.35;101902.00;1428128;99;21137;-48
2021/09/21 10:52:09;;;;;;;1.05;0.70;;;;;;;18.10;41.28;101895.50;1442162;96;21026;-47
2021/09/21 10:54:45;;;;;;;3.22;1.10;;;;;;;18.09;40.89;101900.39;1486425;96;21038;-49
2021/09/21 10:57:17;;;;;;;0.98;0.90;;;;;;;18.11;40.94;101901.19;1483569;96;21126;-51
2021/09/21 11:00:19;;;;;;;1.40;1.00;;;;;;;18.16;40.64;101900.55;1401866;101;21169;-49
2021/09/21 11:02:51;;;;;;;3.17;1.40;;;;;;;18.23;40.45;101906.03;1395920;99;21174;-50
2021/09/21 11:05:20;;;;;;;1.27;1.17;;;;;;;18.29;40.41;101895.27;1394925;103;21571;-51
2021/09/21 11:08:03;;;;;;;0.62;0.62;;;;;;;18.28;40.43;101897.03;1395624;102;21084;-50
2021/09/21 11:10:36;;;;;;;1.57;1.00;;;;;;;18.26;39.22;101898.03;1395088;103;21137;-48
2021/09/21 11:13:08;;;;;;;3.52;1.35;;;;;;;18.22;39.63;101896.39;1397357;101;21100;-49
2021/09/21 11:15:37;;;;;;;1.17;1.07;;;;;;;18.20;39.84;101902.17;1414735;100;21105;-46
2021/09/21 11:18:11;;;;;;;1.40;1.20;;;;;;;18.21;39.56;101894.69;1416424;99;21121;-45
2021/09/21 11:20:53;;;;;;;2.65;1.10;;;;;;;18.22;38.90;101901.66;1410390;102;21245;-45
2021/09/21 11:23:25;;;;;;;1.17;0.93;;;;;;;18.22;38.95;101897.26;1427619;99;21126;-48
2021/09/21 11:25:52;;;;;;;2.37;0.95;;;;;;;18.21;39.74;101893.37;1466225;97;21185;-46
2021/09/21 11:28:20;;;;;;;2.25;1.20;;;;;;;18.25;39.49;101904.20;1465140;97;21259;-48
2021/09/21 11:30:48;;;;;;;1.57;1.20;;;;;;;18.31;39.31;101906.61;1458165;97;21137;-46
2021/09/21 11:33:21;;;;;;;2.40;1.30;;;;;;;18.35;38.86;101905.59;1450803;97;21161;-47
2021/09/21 11:35:50;;;;;;;1.32;1.20;;;;;;;18.35;38.90;101898.55;1457709;97;21071;-49
2021/09/21 11:38:17;;;;;;;1.92;1.30;;;;;;;18.36;39.52;101907.33;1459507;97;21085;-46
2021/09/21 11:40:46;;;;;;;1.52;1.20;;;;;;;18.36;39.89;101908.65;1455302;97;21170;-49
2021/09/21 11:43:14;;;;;;;1.47;1.30;;;;;;;18.34;40.01;101908.67;1452467;99;21105;-48